Time;durP1;ratioP1;P1;durP2;ratioP2;P2;SDS_P1;SDS_P2;PMS_P1;PMS_P2;Temp;Humidity;BMP_temperature;BMP_pressure;BME280_temperature;BME280_humidity;BME280_pressure;Samples;Min_cycle;Max_cycle;Signal;HPM_P1;HPM_P2
2023/04/12 04:04:54;;;;;;;1.08;1.08;;;7.50;99.90;;;;;;5656828;23;20223;-65
2023/04/12 04:07:21;;;;;;;1.17;0.90;;;7.50;99.90;;;;;;4956325;29;20657;-63
2023/04/12 04:09:46;;;;;;;0.70;0.70;;;7.50;99.90;;;;;;4956533;29;20168;-65
2023/04/12 04:12:12;;;;;;;2.00;1.27;;;7.50;99.90;;;;;;4939354;29;20275;-64
2023/04/12 04:14:37;;;;;;;0.50;0.50;;;7.60;99.90;;;;;;4955828;28;20240;-65
2023/04/12 04:17:03;;;;;;;0.90;0.90;;;7.50;99.90;;;;;;4956581;29;20172;-65
2023/04/12 04:19:28;;;;;;;1.17;0.93;;;7.50;99.90;;;;;;4956259;29;20179;-63
2023/04/12 04:21:55;;;;;;;0.60;0.50;;;7.50;99.90;;;;;;4956264;29;20656;-64
2023/04/12 04:24:21;;;;;;;1.27;1.17;;;7.50;99.90;;;;;;4955942;28;20192;-65
2023/04/12 04:26:46;;;;;;;1.15;1.05;;;7.50;99.90;;;;;;4956170;29;20222;-66
2023/04/12 04:29:12;;;;;;;1.33;1.30;;;7.50;99.90;;;;;;4938859;29;20214;-63
2023/04/12 04:31:37;;;;;;;6.67;1.13;;;7.50;99.90;;;;;;4956055;29;20172;-65
2023/04/12 04:34:04;;;;;;;0.80;0.80;;;7.50;99.90;;;;;;4955193;28;20171;-62
2023/04/12 04:36:34;;;;;;;1.08;1.08;;;7.60;99.90;;;;;;4938253;29;20217;-64
2023/04/12 04:39:00;;;;;;;0.60;0.50;;;7.60;99.90;;;;;;4955948;29;20179;-63
2023/04/12 04:41:25;;;;;;;0.97;0.97;;;7.50;99.90;;;;;;4938849;29;20688;-63
2023/04/12 04:43:52;;;;;;;1.40;1.30;;;7.50;99.90;;;;;;4955406;28;20416;-63
2023/04/12 04:46:19;;;;;;;0.93;0.93;;;7.60;99.90;;;;;;4955354;28;20594;-65
2023/04/12 04:48:47;;;;;;;1.88;1.77;;;7.60;99.90;;;;;;4955675;29;20205;-65
2023/04/12 04:51:13;;;;;;;1.50;1.40;;;7.50;99.90;;;;;;4955744;29;20171;-64
2023/04/12 04:53:39;;;;;;;4.53;1.60;;;7.60;99.90;;;;;;4955444;29;20172;-65
2023/04/12 04:56:05;;;;;;;0.90;0.80;;;7.60;99.90;;;;;;4955465;28;20663;-63
2023/04/12 04:58:31;;;;;;;0.95;0.95;;;7.60;99.90;;;;;;4955521;29;20408;-63
2023/04/12 05:00:56;;;;;;;1.17;1.07;;;7.60;99.90;;;;;;4955648;29;20178;-63
2023/04/12 05:03:27;;;;;;;0.83;0.83;;;7.60;99.90;;;;;;4955331;29;20183;-64
2023/04/12 05:05:54;;;;;;;1.08;1.08;;;7.60;99.90;;;;;;4955194;28;20211;-62
2023/04/12 05:08:19;;;;;;;0.85;0.65;;;7.60;99.90;;;;;;4955519;29;20227;-65
2023/04/12 05:10:52;;;;;;;2.67;1.23;;;7.50;99.90;;;;;;4955439;29;20232;-63
2023/04/12 05:13:18;;;;;;;1.00;1.00;;;7.50;99.90;;;;;;4955682;29;20203;-64
2023/04/12 05:15:44;;;;;;;0.93;0.93;;;7.60;99.90;;;;;;4955301;28;20254;-62
2023/04/12 05:18:10;;;;;;;9.50;1.63;;;7.60;99.90;;;;;;4955551;29;20180;-65
2023/04/12 05:20:39;;;;;;;2.53;1.47;;;7.60;99.90;;;;;;4955351;29;20416;-65
2023/04/12 05:23:04;;;;;;;0.60;0.60;;;7.60;99.90;;;;;;4955050;29;20205;-63
2023/04/12 05:25:31;;;;;;;0.80;0.80;;;7.60;99.90;;;;;;4955011;28;20299;-65
2023/04/12 05:27:57;;;;;;;0.70;0.65;;;7.60;99.90;;;;;;4955584;29;20863;-66
2023/04/12 05:30:23;;;;;;;0.93;0.80;;;7.60;99.90;;;;;;4955578;29;20204;-63
2023/04/12 05:32:48;;;;;;;1.20;1.03;;;7.60;99.90;;;;;;4955370;29;20169;-64
2023/04/12 05:35:14;;;;;;;0.67;0.63;;;7.60;99.90;;;;;;4955203;28;20193;-63
2023/04/12 05:37:39;;;;;;;1.00;1.00;;;7.70;99.90;;;;;;4955285;29;20264;-63
2023/04/12 05:40:07;;;;;;;1.13;1.10;;;7.70;99.90;;;;;;4955010;29;20198;-65
2023/04/12 05:42:33;;;;;;;1.63;1.48;;;7.70;99.90;;;;;;4955244;29;20172;-63
2023/04/12 05:45:00;;;;;;;0.93;0.93;;;7.70;99.90;;;;;;4954933;28;20279;-63
2023/04/12 05:47:25;;;;;;;1.33;1.10;;;7.70;99.90;;;;;;4955040;29;20218;-62
2023/04/12 05:49:52;;;;;;;3.60;1.70;;;7.80;99.90;;;;;;4955091;29;20172;-66
2023/04/12 05:52:18;;;;;;;1.02;1.02;;;7.70;99.90;;;;;;4955210;29;20171;-63
2023/04/12 05:54:43;;;;;;;1.13;1.13;;;7.80;99.90;;;;;;4954745;28;20196;-66
2023/04/12 05:57:09;;;;;;;1.47;1.37;;;7.70;99.90;;;;;;4957428;28;20176;-63
2023/04/12 05:59:35;;;;;;;1.23;1.17;;;7.70;99.90;;;;;;4958787;29;20657;-64
2023/04/12 06:02:00;;;;;;;0.80;0.80;;;7.70;99.90;;;;;;4958840;29;20920;-64
2023/04/12 06:04:26;;;;;;;0.73;0.73;;;7.70;99.90;;;;;;4958332;28;20191;-63
2023/04/12 06:06:52;;;;;;;0.50;0.43;;;7.70;99.90;;;;;;4958679;29;20439;-66
2023/04/12 06:09:17;;;;;;;1.00;1.00;;;7.70;99.90;;;;;;4958615;29;20664;-62
2023/04/12 06:11:43;;;;;;;1.23;1.10;;;7.80;99.90;;;;;;4958524;29;20173;-66
2023/04/12 06:14:08;;;;;;;1.03;0.87;;;7.80;99.90;;;;;;4958267;28;20665;-63
2023/04/12 06:16:34;;;;;;;1.47;0.80;;;7.80;99.90;;;;;;4958646;29;20259;-66
2023/04/12 06:19:00;;;;;;;1.03;1.03;;;7.80;99.90;;;;;;4958541;29;20176;-63
2023/04/12 06:21:26;;;;;;;1.17;1.07;;;7.90;99.90;;;;;;4958591;29;20187;-66
2023/04/12 06:23:51;;;;;;;0.80;0.80;;;7.90;99.90;;;;;;4957895;28;20499;-62
2023/04/12 06:26:17;;;;;;;0.63;0.53;;;7.90;99.90;;;;;;4958248;29;20516;-66
2023/04/12 06:28:42;;;;;;;0.70;0.70;;;8.00;99.90;;;;;;4958253;29;20211;-64
2023/04/12 06:31:09;;;;;;;1.30;1.20;;;8.00;99.90;;;;;;4958038;29;20175;-66
2023/04/12 06:33:35;;;;;;;0.77;0.63;;;8.00;99.90;;;;;;4957650;29;20179;-63
2023/04/12 06:36:01;;;;;;;1.00;0.95;;;8.00;99.90;;;;;;4941020;29;20197;-63
2023/04/12 06:38:27;;;;;;;1.20;1.10;;;8.00;99.90;;;;;;4958083;29;20173;-63
2023/04/12 06:40:52;;;;;;;0.70;0.57;;;8.00;99.90;;;;;;4958331;29;20415;-63
2023/04/12 06:43:19;;;;;;;3.13;1.30;;;8.00;99.90;;;;;;4957591;29;20588;-64
2023/04/12 06:45:45;;;;;;;4.10;1.40;;;8.10;99.90;;;;;;4958506;28;20223;-63
2023/04/12 06:48:10;;;;;;;1.10;1.10;;;8.00;99.90;;;;;;4957790;29;20192;-65
2023/04/12 06:50:36;;;;;;;0.80;0.80;;;8.00;99.90;;;;;;4940724;29;20173;-64
2023/04/12 06:53:02;;;;;;;0.80;0.80;;;8.10;99.90;;;;;;4957388;29;20181;-64
2023/04/12 06:55:28;;;;;;;0.90;0.90;;;8.20;99.90;;;;;;4957549;29;20224;-62
2023/04/12 06:57:54;;;;;;;0.73;0.73;;;8.20;99.90;;;;;;4957705;29;20619;-63
2023/04/12 07:00:20;;;;;;;1.60;1.00;;;8.20;99.90;;;;;;4957872;29;20628;-67
2023/04/12 07:02:45;;;;;;;0.97;0.97;;;8.30;99.90;;;;;;4957713;29;20187;-63
2023/04/12 07:05:11;;;;;;;1.27;1.17;;;8.30;99.90;;;;;;4957042;29;20432;-66
2023/04/12 07:07:37;;;;;;;2.10;1.40;;;8.30;99.90;;;;;;4969710;28;20203;-64
2023/04/12 07:10:03;;;;;;;1.40;1.30;;;8.40;99.90;;;;;;4976643;28;20538;-64
2023/04/12 07:12:29;;;;;;;0.50;0.50;;;8.40;99.90;;;;;;4976818;28;20172;-60
2023/04/12 07:14:54;;;;;;;0.50;0.50;;;8.40;99.90;;;;;;4976345;28;20195;-66
2023/04/12 07:17:20;;;;;;;1.13;1.00;;;8.50;99.90;;;;;;4971813;28;20420;-63
2023/04/12 07:19:46;;;;;;;0.83;0.83;;;8.50;99.90;;;;;;4957220;28;20521;-64
2023/04/12 07:22:12;;;;;;;1.77;1.23;;;8.50;99.90;;;;;;4957332;29;20224;-62
2023/04/12 07:24:37;;;;;;;0.80;0.80;;;8.60;99.90;;;;;;4939456;29;20240;-67
2023/04/12 07:27:03;;;;;;;1.23;1.13;;;8.60;99.90;;;;;;4957105;29;20631;-62
2023/04/12 07:29:28;;;;;;;0.90;0.90;;;8.60;99.90;;;;;;4945289;28;20207;-62
2023/04/12 07:31:54;;;;;;;0.93;0.93;;;8.60;99.90;;;;;;4975957;28;20183;-65
2023/04/12 07:34:20;;;;;;;0.70;0.70;;;8.70;99.90;;;;;;4975808;28;20743;-62
2023/04/12 07:36:45;;;;;;;1.07;1.00;;;8.70;99.90;;;;;;4976385;28;20250;-63
2023/04/12 07:39:11;;;;;;;0.70;0.70;;;8.80;99.90;;;;;;4976243;28;20190;-62
2023/04/12 07:41:42;;;;;;;0.70;0.70;;;8.80;99.90;;;;;;4976272;28;20172;-64
2023/04/12 07:44:07;;;;;;;0.47;0.47;;;8.90;99.90;;;;;;4964811;28;20607;-62
2023/04/12 07:46:33;;;;;;;1.10;1.00;;;8.90;99.90;;;;;;4956971;29;20173;-66
2023/04/12 07:48:58;;;;;;;0.77;0.77;;;8.90;99.90;;;;;;4956606;29;20271;-64
2023/04/12 07:51:25;;;;;;;1.00;1.00;;;8.90;99.90;;;;;;4960087;28;20258;-62
2023/04/12 07:53:51;;;;;;;1.63;1.52;;;8.90;99.90;;;;;;4975181;28;20260;-62
2023/04/12 07:56:16;;;;;;;0.93;0.90;;;8.90;99.90;;;;;;4975963;28;20258;-65
2023/04/12 07:58:42;;;;;;;0.60;0.60;;;9.00;99.90;;;;;;4975917;28;20180;-65
2023/04/12 08:01:07;;;;;;;1.20;1.20;;;9.00;99.90;;;;;;4959226;28;20639;-63
2023/04/12 08:03:33;;;;;;;3.67;1.00;;;9.10;99.90;;;;;;4956241;29;20176;-64
2023/04/12 08:05:59;;;;;;;0.50;0.50;;;9.00;99.90;;;;;;4956728;29;20614;-63
2023/04/12 08:08:24;;;;;;;0.73;0.70;;;9.00;99.90;;;;;;4956326;29;20200;-63
2023/04/12 08:10:51;;;;;;;0.80;0.80;;;9.10;99.90;;;;;;4956434;29;20216;-61
2023/04/12 08:13:17;;;;;;;0.85;0.85;;;9.10;99.90;;;;;;4955619;29;20188;-66
2023/04/12 08:15:42;;;;;;;0.80;0.60;;;9.10;99.90;;;;;;4956275;29;20199;-61
2023/04/12 08:18:09;;;;;;;0.97;0.97;;;9.10;99.90;;;;;;4956266;29;20187;-65
2023/04/12 08:20:35;;;;;;;1.00;0.90;;;9.10;99.90;;;;;;4956024;28;20184;-62
2023/04/12 08:23:01;;;;;;;1.10;0.90;;;9.20;99.90;;;;;;4955828;29;20180;-64
2023/04/12 08:25:26;;;;;;;1.07;1.07;;;9.20;99.90;;;;;;4956265;29;20519;-62
2023/04/12 08:27:52;;;;;;;1.07;1.07;;;9.30;99.90;;;;;;4961451;28;20278;-65
2023/04/12 08:30:18;;;;;;;0.80;0.80;;;9.30;99.90;;;;;;4975469;28;20180;-62
2023/04/12 08:32:44;;;;;;;0.60;0.60;;;9.30;99.90;;;;;;4975516;28;20182;-63
2023/04/12 08:35:10;;;;;;;0.98;0.55;;;9.30;99.90;;;;;;4974765;28;20968;-65
2023/04/12 08:37:36;;;;;;;1.02;0.70;;;9.30;99.90;;;;;;4975276;28;20527;-63
2023/04/12 08:40:05;;;;;;;0.90;0.83;;;9.30;99.90;;;;;;4975406;28;20261;-63
2023/04/12 08:42:32;;;;;;;0.75;0.75;;;9.30;99.90;;;;;;4969789;28;20176;-61
2023/04/12 08:44:58;;;;;;;1.30;1.17;;;9.30;99.90;;;;;;4961643;28;20585;-65
2023/04/12 08:47:23;;;;;;;0.70;0.70;;;9.30;99.90;;;;;;4975181;28;20176;-61
2023/04/12 08:49:49;;;;;;;0.77;0.77;;;9.30;99.90;;;;;;4974983;28;20168;-63
2023/04/12 08:52:15;;;;;;;0.60;0.60;;;9.30;99.90;;;;;;4974860;28;20175;-62
2023/04/12 08:54:41;;;;;;;0.70;0.70;;;9.30;99.90;;;;;;4974046;28;20546;-66
2023/04/12 08:57:08;;;;;;;1.03;1.00;;;9.40;99.90;;;;;;4974515;28;20168;-62
2023/04/12 08:59:39;;;;;;;1.50;1.40;;;9.40;99.90;;;;;;4963660;28;20207;-63
2023/04/12 09:02:05;;;;;;;0.80;0.80;;;9.40;99.90;;;;;;4955582;29;20536;-64
2023/04/12 09:04:30;;;;;;;0.60;0.60;;;9.50;99.90;;;;;;4954865;29;20207;-63
2023/04/12 09:06:56;;;;;;;0.77;0.77;;;9.50;99.90;;;;;;4955392;29;20189;-64
2023/04/12 09:10:00;;;;;;;1.10;1.00;;;9.60;99.90;;;;;;4938145;29;20266;-66
2023/04/12 09:12:26;;;;;;;1.20;0.63;;;9.70;99.90;;;;;;4896495;29;20292;-62
2023/04/12 09:15:14;;;;;;;1.07;0.97;;;9.70;99.90;;;;;;4895735;29;20210;-67
2023/04/12 09:17:41;;;;;;;0.95;0.95;;;9.70;99.90;;;;;;4896476;29;20415;-63
2023/04/12 09:20:16;;;;;;;1.15;0.85;;;9.80;99.90;;;;;;4896552;29;20675;-66
2023/04/12 09:22:44;;;;;;;1.15;1.05;;;9.80;99.90;;;;;;4896363;29;20180;-64
2023/04/12 09:25:10;;;;;;;0.98;0.77;;;9.80;99.90;;;;;;4879804;29;20712;-62
2023/04/12 09:27:49;;;;;;;1.33;1.23;;;9.80;99.90;;;;;;4896060;29;20225;-66
2023/04/12 09:30:16;;;;;;;0.77;0.77;;;9.90;99.90;;;;;;4858821;29;20195;-65
2023/04/12 09:32:41;;;;;;;0.77;0.77;;;9.90;99.90;;;;;;4843176;29;20590;-66
2023/04/12 09:35:07;;;;;;;1.30;1.20;;;10.00;99.90;;;;;;4858558;29;20192;-66
2023/04/12 09:37:33;;;;;;;1.40;1.30;;;10.10;99.90;;;;;;4858905;29;20428;-62
2023/04/12 09:40:09;;;;;;;1.50;1.10;;;10.20;99.90;;;;;;4859411;29;20511;-64
2023/04/12 09:42:47;;;;;;;1.08;1.00;;;10.30;99.90;;;;;;4880360;28;20185;-66
2023/04/12 09:45:24;;;;;;;1.55;1.45;;;10.40;99.90;;;;;;4974171;28;20195;-63
2023/04/12 09:47:50;;;;;;;1.35;1.15;;;10.50;99.90;;;;;;4958013;28;20212;-64
2023/04/12 09:50:23;;;;;;;1.02;1.02;;;10.50;99.90;;;;;;4975053;28;20177;-66
2023/04/12 09:52:50;;;;;;;0.60;0.60;;;10.60;99.90;;;;;;4974833;28;20172;-66
2023/04/12 09:55:17;;;;;;;1.58;0.95;;;10.60;99.90;;;;;;4974318;28;20197;-66
2023/04/12 09:57:43;;;;;;;0.98;0.98;;;10.60;99.90;;;;;;4973035;28;20197;-66
2023/04/12 10:00:16;;;;;;;0.50;0.50;;;10.70;99.90;;;;;;4974638;28;20188;-64
2023/04/12 10:02:44;;;;;;;0.60;0.60;;;10.70;99.90;;;;;;4974573;28;20195;-64
2023/04/12 10:05:13;;;;;;;0.60;0.60;;;10.70;99.90;;;;;;4973852;28;20195;-62
2023/04/12 10:07:42;;;;;;;1.48;1.38;;;10.80;99.90;;;;;;4975019;28;20196;-62
2023/04/12 10:10:11;;;;;;;1.02;0.90;;;10.90;99.90;;;;;;4974339;28;20576;-64
2023/04/12 10:12:38;;;;;;;1.60;1.50;;;10.90;99.90;;;;;;4969332;28;20260;-63
2023/04/12 10:15:11;;;;;;;0.70;0.70;;;11.00;99.90;;;;;;4954634;29;20604;-62
2023/04/12 10:17:43;;;;;;;1.15;1.05;;;11.10;99.90;;;;;;4955100;29;20198;-61
2023/04/12 10:20:09;;;;;;;0.70;0.70;;;11.30;99.90;;;;;;4955040;29;20166;-63
2023/04/12 10:22:38;;;;;;;0.88;0.73;;;11.40;99.90;;;;;;4955111;29;20204;-64
2023/04/12 10:25:04;;;;;;;2.60;0.80;;;11.60;99.90;;;;;;4954469;29;20204;-63
2023/04/12 10:27:31;;;;;;;1.00;1.00;;;11.70;99.90;;;;;;4954592;29;20421;-63
2023/04/12 10:30:29;;;;;;;1.05;1.05;;;11.80;99.90;;;;;;4966437;28;20423;-64
2023/04/12 10:33:03;;;;;;;3.57;1.37;;;11.90;99.90;;;;;;4974068;28;20175;-65
2023/04/12 10:35:47;;;;;;;1.00;0.90;;;12.00;99.90;;;;;;4973954;28;20425;-62
2023/04/12 10:38:14;;;;;;;1.00;0.93;;;12.10;99.90;;;;;;4974078;28;20464;-66
2023/04/12 10:41:26;;;;;;;0.70;0.67;;;12.20;99.90;;;;;;4973803;28;20509;-63
2023/04/12 10:44:12;;;;;;;0.90;0.90;;;12.40;99.90;;;;;;4966691;28;20445;-63
2023/04/12 10:46:43;;;;;;;4.53;0.90;;;12.50;99.90;;;;;;4957664;28;20502;-66
2023/04/12 10:49:14;;;;;;;0.93;0.93;;;12.70;99.90;;;;;;4954654;28;20969;-64
2023/04/12 10:51:58;;;;;;;1.03;1.03;;;12.90;99.90;;;;;;4940751;29;20426;-66
2023/04/12 10:54:24;;;;;;;0.90;0.90;;;13.10;99.90;;;;;;4957452;29;20459;-65
2023/04/12 10:56:50;;;;;;;0.90;0.90;;;13.40;99.90;;;;;;4958465;29;20425;-64
2023/04/12 10:59:16;;;;;;;0.60;0.60;;;13.50;99.90;;;;;;4968141;28;20211;-62
2023/04/12 11:02:08;;;;;;;1.07;1.00;;;13.60;99.90;;;;;;4976871;28;20748;-67
2023/04/12 11:04:34;;;;;;;0.93;0.93;;;13.80;99.90;;;;;;4976455;28;20431;-64
2023/04/12 11:07:10;;;;;;;1.00;1.00;;;13.90;99.90;;;;;;4976616;28;20431;-65
2023/04/12 11:09:36;;;;;;;0.50;0.50;;;13.90;99.90;;;;;;4976946;28;20450;-67
2023/04/12 11:12:04;;;;;;;0.80;0.70;;;14.00;99.90;;;;;;4969450;28;20421;-63
2023/04/12 11:14:50;;;;;;;1.10;1.10;;;14.20;99.90;;;;;;4957089;29;20283;-65
2023/04/12 11:17:15;;;;;;;0.60;0.60;;;14.40;99.90;;;;;;4957571;29;20393;-65
2023/04/12 11:19:51;;;;;;;0.90;0.77;;;14.60;99.90;;;;;;4957378;29;20412;-68
2023/04/12 11:22:18;;;;;;;0.70;0.70;;;14.80;99.90;;;;;;4962515;28;20299;-65
2023/04/12 11:24:57;;;;;;;0.77;0.77;;;15.10;99.90;;;;;;4976135;28;20436;-66
2023/04/12 11:27:25;;;;;;;0.57;0.57;;;15.30;99.90;;;;;;4976566;28;20435;-65
2023/04/12 11:29:54;;;;;;;0.80;0.80;;;15.30;99.90;;;;;;4976616;28;20893;-69
2023/04/12 11:32:21;;;;;;;0.70;0.70;;;15.30;99.90;;;;;;4976349;28;20403;-64
2023/04/12 11:34:47;;;;;;;1.43;1.20;;;15.30;99.90;;;;;;4976007;28;20417;-67
2023/04/12 11:37:13;;;;;;;0.60;0.60;;;15.20;99.90;;;;;;4969001;28;20427;-64
2023/04/12 11:39:41;;;;;;;1.37;0.50;;;15.20;99.90;;;;;;4957245;29;20176;-68
2023/04/12 11:42:15;;;;;;;2.83;0.90;;;15.20;99.90;;;;;;4957169;29;20922;-65
2023/04/12 11:44:43;;;;;;;0.87;0.50;;;15.10;99.90;;;;;;4956460;29;20433;-67
2023/04/12 11:47:14;;;;;;;0.60;0.60;;;15.10;99.90;;;;;;4957212;29;20515;-62
2023/04/12 11:49:43;;;;;;;0.70;0.70;;;15.10;99.90;;;;;;4956729;29;20950;-69
2023/04/12 11:52:09;;;;;;;0.83;0.73;;;15.00;99.90;;;;;;4956444;29;20519;-67
2023/04/12 11:54:34;;;;;;;0.80;0.80;;;15.00;99.90;;;;;;4955979;28;20468;-69
2023/04/12 11:57:00;;;;;;;0.53;0.53;;;15.10;99.90;;;;;;4956632;29;20224;-66
2023/04/12 11:59:33;;;;;;;0.63;0.63;;;15.10;99.90;;;;;;4956662;29;20527;-67
2023/04/12 12:02:03;;;;;;;0.60;0.60;;;15.20;99.90;;;;;;4956497;29;20501;-65
2023/04/12 12:04:29;;;;;;;0.70;0.70;;;15.30;99.90;;;;;;4956277;29;20437;-69
2023/04/12 12:06:58;;;;;;;0.60;0.50;;;15.50;99.90;;;;;;4956141;29;20445;-66
2023/04/12 12:09:25;;;;;;;0.63;0.60;;;15.70;99.90;;;;;;4956360;29;20497;-66
2023/04/12 12:11:51;;;;;;;1.47;0.80;;;15.70;99.90;;;;;;4956265;29;20791;-67
2023/04/12 12:14:23;;;;;;;0.43;0.43;;;15.80;99.90;;;;;;4955907;29;20437;-66
2023/04/12 12:16:56;;;;;;;0.67;0.63;;;15.90;99.90;;;;;;4956332;29;20405;-70
2023/04/12 12:19:34;;;;;;;0.50;0.50;;;16.00;99.90;;;;;;4956356;29;20414;-66
2023/04/12 12:22:15;;;;;;;1.00;1.00;;;16.00;99.90;;;;;;4955915;29;20433;-67
2023/04/12 12:25:10;;;;;;;0.57;0.57;;;16.00;99.90;;;;;;4955828;29;20797;-69
2023/04/12 12:27:37;;;;;;;0.70;0.63;;;16.10;99.90;;;;;;4943791;29;20789;-68
2023/04/12 12:30:05;;;;;;;1.03;0.70;;;16.20;99.90;;;;;;4956224;29;20401;-68
2023/04/12 12:32:35;;;;;;;1.63;0.53;;;16.30;99.90;;;;;;4956117;29;20408;-64
2023/04/12 12:35:02;;;;;;;1.60;0.70;;;16.40;99.90;;;;;;4957793;28;20457;-68
2023/04/12 12:37:28;;;;;;;3.83;0.93;;;16.50;99.90;;;;;;4975138;28;20414;-66
2023/04/12 12:40:12;;;;;;;0.60;0.60;;;16.60;99.90;;;;;;4958096;28;20417;-67
2023/04/12 12:42:44;;;;;;;2.13;1.93;;;16.70;99.90;;;;;;4975444;28;20486;-66
2023/04/12 12:45:11;;;;;;;2.00;1.87;;;16.70;99.90;;;;;;4974682;28;20422;-66
2023/04/12 12:47:57;;;;;;;1.80;0.87;;;16.60;99.90;;;;;;4974933;28;20989;-68
2023/04/12 12:50:29;;;;;;;1.50;0.80;;;16.50;99.90;;;;;;4967521;28;20476;-64
2023/04/12 12:52:55;;;;;;;0.93;0.70;;;16.50;99.90;;;;;;4955298;29;20412;-67
2023/04/12 12:55:22;;;;;;;0.73;0.73;;;16.60;99.90;;;;;;4955530;29;20469;-65
2023/04/12 12:57:51;;;;;;;0.63;0.60;;;16.60;99.90;;;;;;4955437;29;20393;-66
2023/04/12 13:00:19;;;;;;;1.03;0.70;;;16.60;99.90;;;;;;4955216;29;20424;-67
2023/04/12 13:02:44;;;;;;;0.93;0.60;;;16.70;99.90;;;;;;4955711;29;20412;-67
2023/04/12 13:05:11;;;;;;;1.83;0.80;;;16.70;99.90;;;;;;4954909;28;20821;-65
2023/04/12 13:07:37;;;;;;;0.60;0.50;;;16.70;99.90;;;;;;4969403;28;20191;-70
2023/04/12 13:10:04;;;;;;;0.53;0.53;;;16.80;99.90;;;;;;4974848;28;20590;-66
2023/04/12 13:12:30;;;;;;;1.63;1.03;;;16.80;99.90;;;;;;4974737;28;20408;-65
2023/04/12 13:14:56;;;;;;;0.87;0.87;;;16.80;99.90;;;;;;4974172;28;20422;-70
2023/04/12 13:17:22;;;;;;;0.40;0.40;;;16.80;99.90;;;;;;4974549;28;20168;-65
2023/04/12 13:19:48;;;;;;;0.50;0.50;;;16.80;99.90;;;;;;4974635;28;20421;-67
2023/04/12 13:22:15;;;;;;;0.70;0.70;;;16.70;99.90;;;;;;4960659;28;20184;-67
2023/04/12 13:24:42;;;;;;;1.27;0.80;;;16.70;99.90;;;;;;4954811;29;20729;-68
2023/04/12 13:27:07;;;;;;;0.87;0.60;;;16.60;99.90;;;;;;4955227;29;20419;-65
2023/04/12 13:29:33;;;;;;;0.57;0.57;;;16.60;99.90;;;;;;4955206;29;20596;-71
2023/04/12 13:31:58;;;;;;;0.73;0.60;;;16.50;99.90;;;;;;4955303;29;20723;-65
2023/04/12 13:34:24;;;;;;;0.83;0.67;;;16.40;99.90;;;;;;4954954;29;20581;-67
2023/04/12 13:36:50;;;;;;;1.10;1.00;;;16.30;99.90;;;;;;4967948;28;20513;-69
2023/04/12 13:39:16;;;;;;;0.43;0.43;;;16.20;99.90;;;;;;4974592;28;20207;-66
2023/04/12 13:41:41;;;;;;;0.70;0.60;;;16.10;99.90;;;;;;4974415;28;20188;-66
2023/04/12 13:44:07;;;;;;;1.37;0.57;;;15.90;99.90;;;;;;4974194;28;20194;-63
2023/04/12 13:46:33;;;;;;;0.50;0.50;;;15.90;99.90;;;;;;4974374;28;20171;-68
2023/04/12 13:48:58;;;;;;;0.43;0.43;;;15.90;99.90;;;;;;4974168;28;20675;-66
2023/04/12 13:51:25;;;;;;;1.00;0.40;;;16.10;99.90;;;;;;4962385;28;20173;-69
2023/04/12 13:53:51;;;;;;;0.40;0.33;;;16.20;99.90;;;;;;4954486;28;20203;-63
2023/04/12 13:56:17;;;;;;;0.70;0.70;;;16.30;99.90;;;;;;4954743;29;20412;-69
2023/04/12 13:58:43;;;;;;;0.57;0.57;;;16.30;99.90;;;;;;4963530;28;20421;-65
2023/04/12 14:01:09;;;;;;;2.97;0.70;;;16.40;99.90;;;;;;4974239;28;20959;-68
2023/04/12 14:03:35;;;;;;;0.97;0.77;;;16.60;99.90;;;;;;4973865;28;20187;-66
2023/04/12 14:06:01;;;;;;;1.63;0.50;;;16.60;99.90;;;;;;4974061;28;20457;-68
2023/04/12 14:08:28;;;;;;;0.47;0.47;;;16.60;99.90;;;;;;4974006;28;20450;-69
2023/04/12 14:10:53;;;;;;;0.60;0.60;;;16.50;99.90;;;;;;4971933;28;20184;-66
2023/04/12 14:13:21;;;;;;;0.93;0.93;;;16.30;99.90;;;;;;4961508;28;20898;-64
2023/04/12 14:15:47;;;;;;;1.00;0.90;;;16.20;99.90;;;;;;4963667;28;20221;-65
2023/04/12 14:18:12;;;;;;;0.40;0.40;;;16.10;99.90;;;;;;4956866;28;20420;-70
2023/04/12 14:20:38;;;;;;;0.60;0.60;;;16.00;99.90;;;;;;4957595;29;20178;-66
2023/04/12 14:23:04;;;;;;;0.50;0.50;;;15.90;99.90;;;;;;4958232;29;20181;-69
2023/04/12 14:25:30;;;;;;;0.50;0.50;;;15.90;99.90;;;;;;4958092;28;20589;-65
2023/04/12 14:27:55;;;;;;;0.50;0.50;;;16.00;99.90;;;;;;4964591;28;20676;-68
2023/04/12 14:30:21;;;;;;;0.50;0.50;;;16.20;99.90;;;;;;4973098;28;20430;-66
2023/04/12 14:32:48;;;;;;;0.30;0.30;;;16.60;99.90;;;;;;4958352;29;20172;-67
2023/04/12 14:35:14;;;;;;;0.53;0.53;;;16.90;99.90;;;;;;4958005;29;20238;-67
2023/04/12 14:37:40;;;;;;;1.13;0.80;;;17.30;99.90;;;;;;4941020;29;20415;-64
2023/04/12 14:40:07;;;;;;;0.60;0.60;;;17.40;99.90;;;;;;4957877;29;20408;-66
2023/04/12 14:42:32;;;;;;;0.60;0.60;;;17.60;99.90;;;;;;4963190;28;20481;-65
2023/04/12 14:44:59;;;;;;;0.40;0.40;;;17.50;99.90;;;;;;4960819;28;20448;-65
2023/04/12 14:47:25;;;;;;;0.60;0.50;;;17.50;99.90;;;;;;4957940;29;20501;-67
2023/04/12 14:49:51;;;;;;;0.70;0.70;;;17.50;99.90;;;;;;4957506;28;20494;-69
2023/04/12 14:52:17;;;;;;;0.83;0.83;;;17.30;99.90;;;;;;4961894;28;20525;-65
2023/04/12 14:54:43;;;;;;;0.73;0.73;;;17.30;99.90;;;;;;4953988;28;20194;-68
2023/04/12 14:57:10;;;;;;;1.03;0.93;;;17.30;99.80;;;;;;4958006;29;20408;-68
2023/04/12 14:59:35;;;;;;;0.87;0.73;;;17.10;99.90;;;;;;4957743;29;20199;-68
2023/04/12 15:02:01;;;;;;;0.80;0.80;;;17.10;99.90;;;;;;4939900;29;20933;-66
2023/04/12 15:04:26;;;;;;;0.77;0.60;;;17.00;99.90;;;;;;4957204;28;20198;-69
2023/04/12 15:06:52;;;;;;;0.80;0.80;;;17.00;99.90;;;;;;4969804;28;20200;-66
2023/04/12 15:09:17;;;;;;;0.47;0.47;;;17.00;99.90;;;;;;4957566;29;20298;-65
2023/04/12 15:11:46;;;;;;;0.90;0.60;;;16.90;99.40;;;;;;4957115;29;20185;-65
2023/04/12 15:14:18;;;;;;;0.50;0.50;;;16.80;99.90;;;;;;4956937;28;20289;-66
2023/04/12 15:16:45;;;;;;;0.50;0.50;;;16.80;99.90;;;;;;4962338;28;20481;-68
2023/04/12 15:19:12;;;;;;;0.90;0.90;;;16.60;99.90;;;;;;4959423;28;20514;-65
2023/04/12 15:21:37;;;;;;;1.53;1.43;;;16.60;99.90;;;;;;4956245;28;21230;-67
2023/04/12 15:24:03;;;;;;;3.50;2.90;;;16.40;99.90;;;;;;4956651;28;20481;-67
2023/04/12 15:26:29;;;;;;;0.60;0.40;;;16.30;99.90;;;;;;4956676;29;20187;-68
2023/04/12 15:28:55;;;;;;;0.70;0.70;;;16.10;99.90;;;;;;4957927;28;20215;-63
2023/04/12 15:31:21;;;;;;;0.30;0.30;;;15.50;99.90;;;;;;4956596;29;20842;-69
2023/04/12 15:33:49;;;;;;;0.93;0.93;;;14.80;99.90;;;;;;4956533;28;20666;-64
2023/04/12 15:36:15;;;;;;;1.13;1.13;;;14.00;99.90;;;;;;4956620;29;20825;-67
2023/04/12 15:38:41;;;;;;;1.10;1.00;;;13.40;99.90;;;;;;4956531;29;20961;-65
2023/04/12 15:41:07;;;;;;;1.23;0.43;;;12.90;99.90;;;;;;4956805;29;20438;-67
2023/04/12 15:43:33;;;;;;;0.40;0.30;;;12.60;99.90;;;;;;4956896;28;20485;-65
2023/04/12 15:46:00;;;;;;;0.30;0.30;;;12.30;99.90;;;;;;4956596;29;20483;-66
2023/04/12 15:48:26;;;;;;;0.47;0.47;;;12.10;99.90;;;;;;4956528;29;20214;-64
2023/04/12 15:50:54;;;;;;;0.53;0.53;;;11.90;99.90;;;;;;4956440;29;20417;-63
2023/04/12 15:53:22;;;;;;;0.50;0.50;;;11.80;99.90;;;;;;4956249;29;20423;-68
2023/04/12 15:55:53;;;;;;;1.00;0.60;;;11.70;99.90;;;;;;4939337;29;21089;-66
2023/04/12 15:58:20;;;;;;;0.47;0.47;;;11.60;99.90;;;;;;4956882;28;20427;-66
2023/04/12 16:00:46;;;;;;;0.70;0.70;;;11.60;99.90;;;;;;4956272;29;20460;-66
2023/04/12 16:03:16;;;;;;;0.40;0.40;;;11.60;99.90;;;;;;4956255;29;20919;-68
2023/04/12 16:05:41;;;;;;;0.70;0.70;;;11.80;99.90;;;;;;4956342;29;20508;-67
2023/04/12 16:08:08;;;;;;;1.03;1.00;;;11.90;99.90;;;;;;4956537;29;20482;-64
2023/04/12 16:10:34;;;;;;;1.93;1.03;;;12.00;99.90;;;;;;4956263;29;20634;-66
2023/04/12 16:13:00;;;;;;;1.37;0.40;;;12.10;99.90;;;;;;4965954;28;20459;-66
2023/04/12 16:15:25;;;;;;;0.60;0.60;;;12.20;99.90;;;;;;4956430;29;20555;-67
2023/04/12 16:17:54;;;;;;;0.50;0.50;;;12.30;99.90;;;;;;4956266;29;20282;-64
2023/04/12 16:20:21;;;;;;;0.40;0.40;;;12.30;99.90;;;;;;4956172;29;20797;-67
2023/04/12 16:22:48;;;;;;;0.40;0.40;;;12.30;99.90;;;;;;4956376;29;20415;-67
2023/04/12 16:25:15;;;;;;;1.03;0.90;;;12.30;99.90;;;;;;4938768;29;20445;-65
2023/04/12 16:27:42;;;;;;;0.40;0.40;;;12.30;99.90;;;;;;4974167;28;20520;-68
2023/04/12 16:30:09;;;;;;;0.30;0.30;;;12.30;99.90;;;;;;4971331;28;20535;-66
2023/04/12 16:32:35;;;;;;;0.63;0.63;;;12.30;99.90;;;;;;4956146;29;20485;-66
2023/04/12 16:35:03;;;;;;;0.60;0.60;;;12.30;99.90;;;;;;4954971;28;20450;-66
2023/04/12 16:37:29;;;;;;;0.50;0.50;;;12.40;99.90;;;;;;4956065;29;20508;-65
2023/04/12 16:39:54;;;;;;;0.97;0.97;;;12.30;99.90;;;;;;4955879;28;20397;-67
2023/04/12 16:42:21;;;;;;;0.50;0.50;;;12.30;99.90;;;;;;4943368;28;20435;-66
2023/04/12 16:44:47;;;;;;;1.03;0.83;;;12.30;99.90;;;;;;4959710;28;20204;-65
2023/04/12 16:47:13;;;;;;;0.43;0.40;;;12.30;99.90;;;;;;4955570;29;20420;-66
2023/04/12 16:49:38;;;;;;;0.30;0.30;;;12.40;99.90;;;;;;4955872;29;20203;-69
2023/04/12 16:52:04;;;;;;;1.00;0.90;;;12.30;99.90;;;;;;4955957;29;20180;-64
2023/04/12 16:54:30;;;;;;;0.50;0.40;;;12.30;99.90;;;;;;4955009;29;20189;-67
2023/04/12 16:56:56;;;;;;;1.00;1.00;;;12.30;99.90;;;;;;4959482;28;20505;-67